sensor_id;sensor_type;location;lat;lon;timestamp;pressure;altitude;pressure_sealevel;temperature;humidity
57801;BME280;43627;42.728;23.256;2023-06-19T00:01:02;95107.44;;;17.09;100.00
57801;BME280;43627;42.728;23.256;2023-06-19T00:03:29;95103.19;;;17.08;100.00
57801;BME280;43627;42.728;23.256;2023-06-19T00:05:56;95114.72;;;17.12;100.00
57801;BME280;43627;42.728;23.256;2023-06-19T00:08:22;95111.97;;;17.07;100.00
57801;BME280;43627;42.728;23.256;2023-06-19T00:10:49;95101.94;;;17.09;100.00
57801;BME280;43627;42.728;23.256;2023-06-19T00:13:16;95106.44;;;17.18;100.00
57801;BME280;43627;42.728;23.256;2023-06-19T00:15:43;95106.19;;;17.22;100.00
57801;BME280;43627;42.728;23.256;2023-06-19T00:18:10;95085.63;;;17.23;100.00
57801;BME280;43627;42.728;23.256;2023-06-19T00:20:37;95095.16;;;17.27;100.00
57801;BME280;43627;42.728;23.256;2023-06-19T00:23:05;95095.66;;;17.20;100.00
57801;BME280;43627;42.728;23.256;2023-06-19T00:25:37;95094.41;;;17.21;100.00
57801;BME280;43627;42.728;23.256;2023-06-19T00:28:04;95100.69;;;17.22;100.00
57801;BME280;43627;42.728;23.256;2023-06-19T00:30:30;95094.44;;;17.16;100.00
57801;BME280;43627;42.728;23.256;2023-06-19T00:32:59;95098.69;;;17.17;100.00
57801;BME280;43627;42.728;23.256;2023-06-19T00:35:29;95077.41;;;17.17;100.00
57801;BME280;43627;42.728;23.256;2023-06-19T00:37:56;95084.88;;;17.22;100.00
57801;BME280;43627;42.728;23.256;2023-06-19T00:40:27;95096.19;;;17.19;100.00
57801;BME280;43627;42.728;23.256;2023-06-19T00:42:55;95095.16;;;17.22;100.00
57801;BME280;43627;42.728;23.256;2023-06-19T00:45:22;95079.91;;;17.15;100.00
57801;BME280;43627;42.728;23.256;2023-06-19T00:47:51;95088.69;;;17.08;100.00
57801;BME280;43627;42.728;23.256;2023-06-19T00:50:18;95079.16;;;17.03;100.00
57801;BME280;43627;42.728;23.256;2023-06-19T00:52:45;95079.66;;;16.96;100.00
57801;BME280;43627;42.728;23.256;2023-06-19T00:55:12;95079.91;;;16.98;100.00
57801;BME280;43627;42.728;23.256;2023-06-19T00:57:40;95060.63;;;16.87;100.00
57801;BME280;43627;42.728;23.256;2023-06-19T01:00:07;95065.88;;;16.85;100.00
57801;BME280;43627;42.728;23.256;2023-06-19T01:02:35;95067.38;;;16.75;100.00
57801;BME280;43627;42.728;23.256;2023-06-19T01:05:01;95056.59;;;16.77;100.00
57801;BME280;43627;42.728;23.256;2023-06-19T01:07:52;95060.38;;;16.79;100.00
57801;BME280;43627;42.728;23.256;2023-06-19T01:10:30;95063.38;;;16.76;100.00
57801;BME280;43627;42.728;23.256;2023-06-19T01:13:10;95048.59;;;16.73;100.00
57801;BME280;43627;42.728;23.256;2023-06-19T01:15:38;95055.38;;;16.72;100.00
57801;BME280;43627;42.728;23.256;2023-06-19T01:18:07;95051.84;;;16.61;100.00
57801;BME280;43627;42.728;23.256;2023-06-19T01:20:34;95055.81;;;16.65;100.00
57801;BME280;43627;42.728;23.256;2023-06-19T01:23:10;95046.81;;;16.59;100.00
57801;BME280;43627;42.728;23.256;2023-06-19T01:25:37;95041.03;;;16.46;100.00
57801;BME280;43627;42.728;23.256;2023-06-19T01:28:06;95043.56;;;16.49;100.00
57801;BME280;43627;42.728;23.256;2023-06-19T01:30:39;95059.56;;;16.51;100.00
57801;BME280;43627;42.728;23.256;2023-06-19T01:33:08;95065.31;;;16.47;100.00
57801;BME280;43627;42.728;23.256;2023-06-19T01:35:38;95041.03;;;16.35;100.00
57801;BME280;43627;42.728;23.256;2023-06-19T01:38:07;95057.56;;;16.51;100.00
57801;BME280;43627;42.728;23.256;2023-06-19T01:40:35;95072.84;;;16.52;100.00
57801;BME280;43627;42.728;23.256;2023-06-19T01:43:04;95069.06;;;16.55;100.00
57801;BME280;43627;42.728;23.256;2023-06-19T01:45:32;95076.34;;;16.59;100.00
57801;BME280;43627;42.728;23.256;2023-06-19T01:47:58;95084.84;;;16.66;100.00
57801;BME280;43627;42.728;23.256;2023-06-19T01:50:25;95073.66;;;16.70;100.00
57801;BME280;43627;42.728;23.256;2023-06-19T01:52:52;95071.88;;;16.72;100.00
57801;BME280;43627;42.728;23.256;2023-06-19T01:55:20;95080.66;;;16.71;100.00
57801;BME280;43627;42.728;23.256;2023-06-19T01:57:46;95077.34;;;16.67;100.00
57801;BME280;43627;42.728;23.256;2023-06-19T02:00:13;95081.59;;;16.62;100.00
57801;BME280;43627;42.728;23.256;2023-06-19T02:02:40;95082.59;;;16.53;100.00
57801;BME280;43627;42.728;23.256;2023-06-19T02:05:07;95088.34;;;16.50;100.00
57801;BME280;43627;42.728;23.256;2023-06-19T02:07:34;95076.31;;;16.31;100.00
57801;BME280;43627;42.728;23.256;2023-06-19T02:10:01;95097.56;;;16.30;100.00
57801;BME280;43627;42.728;23.256;2023-06-19T02:12:27;95084.25;;;16.12;100.00
57801;BME280;43627;42.728;23.256;2023-06-19T02:14:54;95077.94;;;16.00;100.00
57801;BME280;43627;42.728;23.256;2023-06-19T02:17:21;95086.69;;;15.93;100.00
57801;BME280;43627;42.728;23.256;2023-06-19T02:19:47;95085.94;;;15.92;100.00
57801;BME280;43627;42.728;23.256;2023-06-19T02:22:14;95088.66;;;15.87;100.00
57801;BME280;43627;42.728;23.256;2023-06-19T02:24:41;95095.41;;;15.91;100.00
57801;BME280;43627;42.728;23.256;2023-06-19T02:27:08;95090.16;;;15.88;100.00
57801;BME280;43627;42.728;23.256;2023-06-19T02:29:34;95083.16;;;15.87;100.00
57801;BME280;43627;42.728;23.256;2023-06-19T02:32:01;95092.91;;;15.88;100.00
57801;BME280;43627;42.728;23.256;2023-06-19T02:34:28;95090.69;;;15.92;100.00
57801;BME280;43627;42.728;23.256;2023-06-19T02:36:55;95095.19;;;15.95;100.00
57801;BME280;43627;42.728;23.256;2023-06-19T02:39:22;95084.94;;;15.95;100.00
57801;BME280;43627;42.728;23.256;2023-06-19T02:41:49;95085.94;;;15.92;100.00
57801;BME280;43627;42.728;23.256;2023-06-19T02:44:16;95103.88;;;15.82;100.00
57801;BME280;43627;42.728;23.256;2023-06-19T02:46:43;95108.41;;;15.85;100.00
57801;BME280;43627;42.728;23.256;2023-06-19T02:49:09;95107.94;;;15.92;100.00
57801;BME280;43627;42.728;23.256;2023-06-19T02:51:36;95104.44;;;15.92;100.00
57801;BME280;43627;42.728;23.256;2023-06-19T02:54:05;95107.38;;;15.83;100.00
57801;BME280;43627;42.728;23.256;2023-06-19T02:56:33;95082.84;;;15.74;100.00
57801;BME280;43627;42.728;23.256;2023-06-19T02:58:59;95102.34;;;15.76;100.00
57801;BME280;43627;42.728;23.256;2023-06-19T03:01:26;95103.06;;;15.70;100.00
57801;BME280;43627;42.728;23.256;2023-06-19T03:03:53;95112.59;;;15.75;100.00
57801;BME280;43627;42.728;23.256;2023-06-19T03:06:20;95115.09;;;15.79;100.00
57801;BME280;43627;42.728;23.256;2023-06-19T03:08:46;95107.84;;;15.76;100.00
57801;BME280;43627;42.728;23.256;2023-06-19T03:11:13;95103.81;;;15.71;100.00
57801;BME280;43627;42.728;23.256;2023-06-19T03:13:53;95105.31;;;15.66;100.00
57801;BME280;43627;42.728;23.256;2023-06-19T03:16:20;95095.75;;;15.62;100.00
57801;BME280;43627;42.728;23.256;2023-06-19T03:18:48;95099.00;;;15.60;100.00
57801;BME280;43627;42.728;23.256;2023-06-19T03:21:18;95098.22;;;15.60;100.00
57801;BME280;43627;42.728;23.256;2023-06-19T03:23:46;95097.81;;;15.67;100.00
57801;BME280;43627;42.728;23.256;2023-06-19T03:26:13;95106.19;;;15.95;100.00
57801;BME280;43627;42.728;23.256;2023-06-19T03:28:40;95109.22;;;16.08;100.00
57801;BME280;43627;42.728;23.256;2023-06-19T03:31:06;95112.56;;;16.35;100.00
57801;BME280;43627;42.728;23.256;2023-06-19T03:33:33;95107.94;;;16.74;100.00
57801;BME280;43627;42.728;23.256;2023-06-19T03:36:00;95114.19;;;17.31;100.00
57801;BME280;43627;42.728;23.256;2023-06-19T03:38:26;95101.63;;;17.75;100.00
57801;BME280;43627;42.728;23.256;2023-06-19T03:40:53;95100.66;;;18.30;100.00
57801;BME280;43627;42.728;23.256;2023-06-19T03:43:20;95096.38;;;18.35;100.00
57801;BME280;43627;42.728;23.256;2023-06-19T03:45:47;95119.41;;;18.48;100.00
57801;BME280;43627;42.728;23.256;2023-06-19T03:48:14;95102.47;;;18.63;100.00
57801;BME280;43627;42.728;23.256;2023-06-19T03:50:41;95117.47;;;18.79;100.00
57801;BME280;43627;42.728;23.256;2023-06-19T03:53:08;95110.78;;;19.34;100.00
57801;BME280;43627;42.728;23.256;2023-06-19T03:55:35;95121.09;;;19.64;93.99
57801;BME280;43627;42.728;23.256;2023-06-19T03:58:02;95100.56;;;19.78;92.24
57801;BME280;43627;42.728;23.256;2023-06-19T04:00:31;95116.81;;;20.12;88.42
57801;BME280;43627;42.728;23.256;2023-06-19T04:02:57;95116.50;;;20.59;82.69
57801;BME280;43627;42.728;23.256;2023-06-19T04:05:24;95116.03;;;21.24;75.83
57801;BME280;43627;42.728;23.256;2023-06-19T04:07:51;95113.84;;;21.49;74.20
57801;BME280;43627;42.728;23.256;2023-06-19T04:10:18;95121.44;;;21.17;73.51
57801;BME280;43627;42.728;23.256;2023-06-19T04:12:45;95113.50;;;21.39;72.21
57801;BME280;43627;42.728;23.256;2023-06-19T04:15:12;95115.84;;;21.81;69.93
57801;BME280;43627;42.728;23.256;2023-06-19T04:17:39;95118.38;;;21.65;67.82
57801;BME280;43627;42.728;23.256;2023-06-19T04:20:06;95125.28;;;21.14;75.25
57801;BME280;43627;42.728;23.256;2023-06-19T04:22:46;95104.28;;;21.18;73.63
57801;BME280;43627;42.728;23.256;2023-06-19T04:25:13;95113.31;;;21.37;74.44
57801;BME280;43627;42.728;23.256;2023-06-19T04:27:39;95114.97;;;21.73;70.66
57801;BME280;43627;42.728;23.256;2023-06-19T04:30:06;95121.03;;;21.58;66.73
57801;BME280;43627;42.728;23.256;2023-06-19T04:32:34;95119.13;;;21.79;68.58
57801;BME280;43627;42.728;23.256;2023-06-19T04:35:02;95113.63;;;22.19;67.28
57801;BME280;43627;42.728;23.256;2023-06-19T04:37:29;95111.63;;;22.67;60.45
57801;BME280;43627;42.728;23.256;2023-06-19T04:39:55;95115.38;;;22.56;61.66
57801;BME280;43627;42.728;23.256;2023-06-19T04:42:24;95108.50;;;22.70;60.40
57801;BME280;43627;42.728;23.256;2023-06-19T04:44:51;95103.38;;;22.61;60.99
57801;BME280;43627;42.728;23.256;2023-06-19T04:47:21;95109.09;;;22.90;57.46
57801;BME280;43627;42.728;23.256;2023-06-19T04:49:48;95095.00;;;23.08;61.60
57801;BME280;43627;42.728;23.256;2023-06-19T04:52:15;95105.00;;;23.04;59.80
57801;BME280;43627;42.728;23.256;2023-06-19T04:54:42;95086.22;;;22.49;64.45
57801;BME280;43627;42.728;23.256;2023-06-19T04:57:08;95116.13;;;22.43;66.82
57801;BME280;43627;42.728;23.256;2023-06-19T04:59:35;95109.78;;;22.69;65.59
57801;BME280;43627;42.728;23.256;2023-06-19T05:02:03;95104.28;;;22.56;65.41
57801;BME280;43627;42.728;23.256;2023-06-19T05:04:30;95104.66;;;23.07;61.66
57801;BME280;43627;42.728;23.256;2023-06-19T05:06:59;95106.69;;;23.28;59.34
57801;BME280;43627;42.728;23.256;2023-06-19T05:09:26;95109.94;;;22.98;58.33
57801;BME280;43627;42.728;23.256;2023-06-19T05:11:53;95112.50;;;22.83;62.80
57801;BME280;43627;42.728;23.256;2023-06-19T05:14:20;95110.88;;;23.00;64.84
57801;BME280;43627;42.728;23.256;2023-06-19T05:16:47;95111.13;;;23.23;57.98
57801;BME280;43627;42.728;23.256;2023-06-19T05:19:13;95119.06;;;22.24;62.69
57801;BME280;43627;42.728;23.256;2023-06-19T05:21:40;95105.84;;;22.17;64.02
57801;BME280;43627;42.728;23.256;2023-06-19T05:24:07;95113.66;;;22.53;64.95
57801;BME280;43627;42.728;23.256;2023-06-19T05:26:33;95116.72;;;22.76;63.85
57801;BME280;43627;42.728;23.256;2023-06-19T05:29:00;95121.84;;;22.85;62.60
57801;BME280;43627;42.728;23.256;2023-06-19T05:31:27;95127.75;;;22.55;64.08
57801;BME280;43627;42.728;23.256;2023-06-19T05:33:53;95132.28;;;22.45;66.25
57801;BME280;43627;42.728;23.256;2023-06-19T05:36:20;95137.63;;;22.56;67.49
57801;BME280;43627;42.728;23.256;2023-06-19T05:38:47;95143.47;;;22.52;66.93
57801;BME280;43627;42.728;23.256;2023-06-19T05:41:13;95134.44;;;22.26;66.09
57801;BME280;43627;42.728;23.256;2023-06-19T05:43:40;95138.75;;;21.68;73.56
57801;BME280;43627;42.728;23.256;2023-06-19T05:46:07;95137.13;;;21.59;77.68
57801;BME280;43627;42.728;23.256;2023-06-19T05:48:34;95132.19;;;21.39;76.51
57801;BME280;43627;42.728;23.256;2023-06-19T05:51:01;95133.66;;;21.27;76.97
57801;BME280;43627;42.728;23.256;2023-06-19T05:53:27;95149.03;;;21.41;79.79
57801;BME280;43627;42.728;23.256;2023-06-19T05:55:54;95137.00;;;21.38;75.80
57801;BME280;43627;42.728;23.256;2023-06-19T05:58:21;95139.50;;;21.23;71.53
57801;BME280;43627;42.728;23.256;2023-06-19T06:00:48;95142.19;;;21.29;77.36
57801;BME280;43627;42.728;23.256;2023-06-19T06:03:14;95141.53;;;21.68;72.72
57801;BME280;43627;42.728;23.256;2023-06-19T06:05:41;95147.03;;;22.00;74.60
57801;BME280;43627;42.728;23.256;2023-06-19T06:08:09;95135.41;;;22.15;71.73
57801;BME280;43627;42.728;23.256;2023-06-19T06:10:36;95134.84;;;22.03;76.50
57801;BME280;43627;42.728;23.256;2023-06-19T06:13:03;95139.97;;;22.26;75.35
57801;BME280;43627;42.728;23.256;2023-06-19T06:15:29;95146.25;;;22.52;68.25
57801;BME280;43627;42.728;23.256;2023-06-19T06:17:56;95146.50;;;22.41;65.34
57801;BME280;43627;42.728;23.256;2023-06-19T06:20:23;95134.63;;;22.01;73.30
57801;BME280;43627;42.728;23.256;2023-06-19T06:22:50;95154.63;;;22.13;68.07
57801;BME280;43627;42.728;23.256;2023-06-19T06:25:16;95157.94;;;22.38;73.46
57801;BME280;43627;42.728;23.256;2023-06-19T06:27:43;95160.28;;;22.47;68.44
57801;BME280;43627;42.728;23.256;2023-06-19T06:30:11;95159.22;;;22.37;66.93
57801;BME280;43627;42.728;23.256;2023-06-19T06:32:38;95151.22;;;22.46;68.91
57801;BME280;43627;42.728;23.256;2023-06-19T06:35:05;95159.63;;;22.54;65.49
57801;BME280;43627;42.728;23.256;2023-06-19T06:37:32;95155.75;;;22.70;66.76
57801;BME280;43627;42.728;23.256;2023-06-19T06:39:59;95154.66;;;22.73;67.62
57801;BME280;43627;42.728;23.256;2023-06-19T06:42:25;95156.50;;;22.71;68.95
57801;BME280;43627;42.728;23.256;2023-06-19T06:44:52;95159.97;;;22.37;70.05
57801;BME280;43627;42.728;23.256;2023-06-19T06:47:19;95156.31;;;22.03;66.54
57801;BME280;43627;42.728;23.256;2023-06-19T06:49:46;95156.28;;;21.76;68.59
57801;BME280;43627;42.728;23.256;2023-06-19T06:52:12;95161.63;;;21.87;70.67
57801;BME280;43627;42.728;23.256;2023-06-19T06:54:39;95161.25;;;22.10;65.16
57801;BME280;43627;42.728;23.256;2023-06-19T06:57:06;95156.22;;;22.48;67.43
57801;BME280;43627;42.728;23.256;2023-06-19T06:59:33;95145.84;;;22.48;62.56
57801;BME280;43627;42.728;23.256;2023-06-19T07:02:00;95163.69;;;22.53;64.37
57801;BME280;43627;42.728;23.256;2023-06-19T07:04:27;95144.78;;;22.51;64.59
57801;BME280;43627;42.728;23.256;2023-06-19T07:06:54;95147.41;;;22.84;69.77
57801;BME280;43627;42.728;23.256;2023-06-19T07:09:21;95154.88;;;23.23;68.63
57801;BME280;43627;42.728;23.256;2023-06-19T07:11:48;95147.94;;;23.37;68.15
57801;BME280;43627;42.728;23.256;2023-06-19T07:14:19;95145.41;;;23.60;58.41
57801;BME280;43627;42.728;23.256;2023-06-19T07:16:46;95163.09;;;23.91;53.62
57801;BME280;43627;42.728;23.256;2023-06-19T07:19:13;95161.63;;;23.69;55.58
57801;BME280;43627;42.728;23.256;2023-06-19T07:21:40;95155.78;;;23.80;58.99
57801;BME280;43627;42.728;23.256;2023-06-19T07:24:07;95170.38;;;23.73;54.10
57801;BME280;43627;42.728;23.256;2023-06-19T07:26:35;95163.22;;;23.44;56.50
57801;BME280;43627;42.728;23.256;2023-06-19T07:29:01;95152.84;;;23.44;57.91
57801;BME280;43627;42.728;23.256;2023-06-19T07:31:28;95159.03;;;23.50;65.22
57801;BME280;43627;42.728;23.256;2023-06-19T07:33:55;95155.63;;;23.23;63.62
57801;BME280;43627;42.728;23.256;2023-06-19T07:36:21;95155.72;;;22.84;64.23
57801;BME280;43627;42.728;23.256;2023-06-19T07:38:48;95153.59;;;22.76;63.58
57801;BME280;43627;42.728;23.256;2023-06-19T07:41:15;95169.13;;;22.85;66.51
57801;BME280;43627;42.728;23.256;2023-06-19T07:43:42;95147.63;;;22.86;54.40
57801;BME280;43627;42.728;23.256;2023-06-19T07:46:09;95164.81;;;23.18;56.77
57801;BME280;43627;42.728;23.256;2023-06-19T07:48:36;95166.88;;;23.38;53.47
57801;BME280;43627;42.728;23.256;2023-06-19T07:51:03;95164.09;;;23.18;57.58
57801;BME280;43627;42.728;23.256;2023-06-19T07:53:30;95159.81;;;23.17;55.28
57801;BME280;43627;42.728;23.256;2023-06-19T07:55:57;95167.13;;;23.06;60.71
57801;BME280;43627;42.728;23.256;2023-06-19T07:58:23;95166.66;;;23.16;54.34
57801;BME280;43627;42.728;23.256;2023-06-19T08:00:50;95167.38;;;22.95;57.46
57801;BME280;43627;42.728;23.256;2023-06-19T08:03:17;95171.47;;;23.15;61.63
57801;BME280;43627;42.728;23.256;2023-06-19T08:05:44;95165.13;;;23.49;53.94
57801;BME280;43627;42.728;23.256;2023-06-19T08:08:12;95163.63;;;23.48;53.87
57801;BME280;43627;42.728;23.256;2023-06-19T08:10:38;95164.25;;;23.33;54.01
57801;BME280;43627;42.728;23.256;2023-06-19T08:13:05;95164.16;;;23.59;53.12
57801;BME280;43627;42.728;23.256;2023-06-19T08:15:32;95161.53;;;23.82;54.39
57801;BME280;43627;42.728;23.256;2023-06-19T08:17:58;95158.72;;;24.03;54.60
57801;BME280;43627;42.728;23.256;2023-06-19T08:20:25;95164.84;;;24.02;54.14
57801;BME280;43627;42.728;23.256;2023-06-19T08:22:53;95157.34;;;24.25;49.27
57801;BME280;43627;42.728;23.256;2023-06-19T08:25:19;95158.06;;;23.89;53.70
57801;BME280;43627;42.728;23.256;2023-06-19T08:27:46;95158.75;;;23.41;53.64
57801;BME280;43627;42.728;23.256;2023-06-19T08:30:13;95162.84;;;23.60;52.01
57801;BME280;43627;42.728;23.256;2023-06-19T08:32:40;95162.75;;;23.94;53.91
57801;BME280;43627;42.728;23.256;2023-06-19T08:35:06;95165.94;;;23.99;48.62
57801;BME280;43627;42.728;23.256;2023-06-19T08:37:34;95171.84;;;23.95;46.68
57801;BME280;43627;42.728;23.256;2023-06-19T08:40:01;95161.38;;;24.09;46.96
57801;BME280;43627;42.728;23.256;2023-06-19T08:42:29;95160.25;;;23.83;45.74
57801;BME280;43627;42.728;23.256;2023-06-19T08:44:56;95158.75;;;23.82;48.91
57801;BME280;43627;42.728;23.256;2023-06-19T08:47:29;95150.75;;;23.79;51.95
57801;BME280;43627;42.728;23.256;2023-06-19T08:49:56;95162.25;;;24.04;48.55
57801;BME280;43627;42.728;23.256;2023-06-19T08:52:24;95167.88;;;24.11;49.99
57801;BME280;43627;42.728;23.256;2023-06-19T08:54:50;95154.31;;;24.36;45.70
57801;BME280;43627;42.728;23.256;2023-06-19T08:57:17;95151.75;;;24.46;44.76
57801;BME280;43627;42.728;23.256;2023-06-19T08:59:50;95157.53;;;24.19;47.67
57801;BME280;43627;42.728;23.256;2023-06-19T09:02:17;95156.88;;;24.06;46.57
57801;BME280;43627;42.728;23.256;2023-06-19T09:04:44;95158.25;;;23.91;51.37
57801;BME280;43627;42.728;23.256;2023-06-19T09:07:12;95164.81;;;23.73;47.64
57801;BME280;43627;42.728;23.256;2023-06-19T09:09:44;95154.22;;;23.51;50.32
57801;BME280;43627;42.728;23.256;2023-06-19T09:12:13;95149.59;;;23.32;48.22
57801;BME280;43627;42.728;23.256;2023-06-19T09:14:42;95148.22;;;23.47;50.87
57801;BME280;43627;42.728;23.256;2023-06-19T09:17:17;95144.34;;;23.50;51.47
57801;BME280;43627;42.728;23.256;2023-06-19T09:19:53;95156.47;;;23.73;48.78
57801;BME280;43627;42.728;23.256;2023-06-19T09:22:22;95153.59;;;23.65;49.46
57801;BME280;43627;42.728;23.256;2023-06-19T09:24:51;95149.72;;;24.18;50.62
57801;BME280;43627;42.728;23.256;2023-06-19T09:27:19;95160.28;;;24.40;47.47
57801;BME280;43627;42.728;23.256;2023-06-19T09:29:48;95150.69;;;24.57;49.24
57801;BME280;43627;42.728;23.256;2023-06-19T09:34:41;95151.47;;;24.65;48.97
57801;BME280;43627;42.728;23.256;2023-06-19T09:37:08;95153.41;;;24.41;46.10
57801;BME280;43627;42.728;23.256;2023-06-19T09:39:38;95158.81;;;24.47;44.93
57801;BME280;43627;42.728;23.256;2023-06-19T09:42:09;95161.38;;;24.37;43.51
57801;BME280;43627;42.728;23.256;2023-06-19T09:44:40;95151.06;;;24.61;46.71
57801;BME280;43627;42.728;23.256;2023-06-19T09:47:18;95142.22;;;24.77;44.77
57801;BME280;43627;42.728;23.256;2023-06-19T09:49:53;95145.41;;;24.89;45.18
57801;BME280;43627;42.728;23.256;2023-06-19T09:52:20;95138.16;;;24.86;48.25
57801;BME280;43627;42.728;23.256;2023-06-19T09:54:51;95144.41;;;24.64;43.92
57801;BME280;43627;42.728;23.256;2023-06-19T09:57:18;95138.81;;;24.28;44.64
57801;BME280;43627;42.728;23.256;2023-06-19T09:59:51;95146.97;;;24.26;46.51
57801;BME280;43627;42.728;23.256;2023-06-19T10:02:20;95141.00;;;24.50;48.42
57801;BME280;43627;42.728;23.256;2023-06-19T10:04:52;95138.41;;;24.52;47.77
57801;BME280;43627;42.728;23.256;2023-06-19T10:07:23;95143.03;;;25.01;46.20
57801;BME280;43627;42.728;23.256;2023-06-19T10:10:00;95127.75;;;24.87;45.51
57801;BME280;43627;42.728;23.256;2023-06-19T10:12:42;95130.16;;;24.90;42.97
57801;BME280;43627;42.728;23.256;2023-06-19T10:17:51;95133.44;;;25.17;45.65
57801;BME280;43627;42.728;23.256;2023-06-19T10:20:29;95118.47;;;24.92;43.74
57801;BME280;43627;42.728;23.256;2023-06-19T10:23:03;95124.69;;;25.13;44.76
57801;BME280;43627;42.728;23.256;2023-06-19T10:25:32;95123.59;;;25.24;44.97
57801;BME280;43627;42.728;23.256;2023-06-19T10:27:59;95114.00;;;24.89;46.43
57801;BME280;43627;42.728;23.256;2023-06-19T10:30:26;95127.94;;;24.37;47.32
57801;BME280;43627;42.728;23.256;2023-06-19T10:32:54;95116.72;;;24.30;48.01
57801;BME280;43627;42.728;23.256;2023-06-19T10:35:20;95108.56;;;24.75;45.66
57801;BME280;43627;42.728;23.256;2023-06-19T10:37:51;95124.13;;;25.15;44.08
57801;BME280;43627;42.728;23.256;2023-06-19T10:40:18;95123.38;;;25.14;44.18
57801;BME280;43627;42.728;23.256;2023-06-19T10:42:45;95115.22;;;25.31;44.45
57801;BME280;43627;42.728;23.256;2023-06-19T10:45:14;95118.00;;;25.39;45.89
57801;BME280;43627;42.728;23.256;2023-06-19T10:47:44;95122.31;;;25.55;44.02
57801;BME280;43627;42.728;23.256;2023-06-19T10:50:15;95115.47;;;25.87;43.30
57801;BME280;43627;42.728;23.256;2023-06-19T10:52:45;95112.09;;;25.88;44.04
57801;BME280;43627;42.728;23.256;2023-06-19T10:55:12;95114.72;;;25.79;44.71
57801;BME280;43627;42.728;23.256;2023-06-19T10:57:46;95114.13;;;25.57;45.52
57801;BME280;43627;42.728;23.256;2023-06-19T11:00:30;95107.63;;;25.40;46.48
57801;BME280;43627;42.728;23.256;2023-06-19T11:02:58;95117.88;;;25.83;46.19
57801;BME280;43627;42.728;23.256;2023-06-19T11:05:26;95103.50;;;25.86;48.88
57801;BME280;43627;42.728;23.256;2023-06-19T11:07:58;95098.88;;;25.51;46.41
57801;BME280;43627;42.728;23.256;2023-06-19T11:10:28;95086.97;;;25.43;50.66
57801;BME280;43627;42.728;23.256;2023-06-19T11:12:58;95095.50;;;25.45;46.40
57801;BME280;43627;42.728;23.256;2023-06-19T11:15:30;95096.06;;;25.43;48.81
57801;BME280;43627;42.728;23.256;2023-06-19T11:18:00;95099.97;;;25.55;48.24
57801;BME280;43627;42.728;23.256;2023-06-19T11:20:28;95094.53;;;26.11;46.57
57801;BME280;43627;42.728;23.256;2023-06-19T11:22:59;95091.72;;;26.18;45.53
57801;BME280;43627;42.728;23.256;2023-06-19T11:25:41;95086.03;;;26.57;46.39
57801;BME280;43627;42.728;23.256;2023-06-19T11:28:12;95090.84;;;26.01;43.49
57801;BME280;43627;42.728;23.256;2023-06-19T11:30:40;95072.78;;;25.48;43.19
57801;BME280;43627;42.728;23.256;2023-06-19T11:33:17;95036.16;;;25.14;45.78
57801;BME280;43627;42.728;23.256;2023-06-19T11:35:49;95092.88;;;26.08;44.62
57801;BME280;43627;42.728;23.256;2023-06-19T11:38:26;95088.44;;;25.82;44.47
57801;BME280;43627;42.728;23.256;2023-06-19T11:40:55;95087.88;;;25.76;44.20
57801;BME280;43627;42.728;23.256;2023-06-19T11:43:30;95088.44;;;25.36;46.73
57801;BME280;43627;42.728;23.256;2023-06-19T11:46:05;95052.16;;;25.36;46.38
57801;BME280;43627;42.728;23.256;2023-06-19T11:48:36;95081.38;;;25.73;47.16
57801;BME280;43627;42.728;23.256;2023-06-19T11:51:03;95070.38;;;25.83;48.94
57801;BME280;43627;42.728;23.256;2023-06-19T11:53:30;95081.59;;;26.46;50.51
57801;BME280;43627;42.728;23.256;2023-06-19T11:55:57;95075.59;;;26.57;45.40
57801;BME280;43627;42.728;23.256;2023-06-19T11:58:24;95078.16;;;26.07;47.08
57801;BME280;43627;42.728;23.256;2023-06-19T12:00:52;95079.16;;;26.50;44.42
57801;BME280;43627;42.728;23.256;2023-06-19T12:03:19;95072.59;;;26.63;43.44
57801;BME280;43627;42.728;23.256;2023-06-19T12:05:46;95061.16;;;26.20;44.82
57801;BME280;43627;42.728;23.256;2023-06-19T12:08:13;95080.13;;;26.30;46.00
57801;BME280;43627;42.728;23.256;2023-06-19T12:10:41;95081.28;;;26.19;43.92
57801;BME280;43627;42.728;23.256;2023-06-19T12:13:08;95066.44;;;25.94;45.35
57801;BME280;43627;42.728;23.256;2023-06-19T12:15:35;95074.09;;;25.93;46.06
57801;BME280;43627;42.728;23.256;2023-06-19T12:18:03;95062.31;;;26.10;47.23
57801;BME280;43627;42.728;23.256;2023-06-19T12:20:30;95075.31;;;26.23;43.98
57801;BME280;43627;42.728;23.256;2023-06-19T12:22:57;95073.84;;;26.14;43.64
57801;BME280;43627;42.728;23.256;2023-06-19T12:25:24;95055.75;;;26.23;46.86
57801;BME280;43627;42.728;23.256;2023-06-19T12:27:50;95071.94;;;26.32;45.62
57801;BME280;43627;42.728;23.256;2023-06-19T12:30:21;95068.78;;;26.28;43.58
57801;BME280;43627;42.728;23.256;2023-06-19T12:32:48;95058.69;;;26.32;44.85
57801;BME280;43627;42.728;23.256;2023-06-19T12:35:16;95067.22;;;26.50;42.72
57801;BME280;43627;42.728;23.256;2023-06-19T12:37:52;95052.28;;;25.99;44.48
57801;BME280;43627;42.728;23.256;2023-06-19T12:40:19;95066.41;;;26.16;43.27
57801;BME280;43627;42.728;23.256;2023-06-19T12:42:46;95068.81;;;26.12;42.25
57801;BME280;43627;42.728;23.256;2023-06-19T12:45:13;95061.63;;;25.63;44.84
57801;BME280;43627;42.728;23.256;2023-06-19T12:47:40;95064.25;;;25.61;45.02
57801;BME280;43627;42.728;23.256;2023-06-19T12:50:07;95067.97;;;25.33;42.96
57801;BME280;43627;42.728;23.256;2023-06-19T12:52:34;95065.94;;;25.49;43.43
57801;BME280;43627;42.728;23.256;2023-06-19T12:55:01;95078.75;;;25.68;41.22
57801;BME280;43627;42.728;23.256;2023-06-19T12:57:28;95071.34;;;25.70;42.21